sensor_id;sensor_type;location;lat;lon;timestamp;temperature;humidity
16999;DHT22;10211;49.476;11.010;2022-12-07T00:01:22;2.90;99.90
16999;DHT22;10211;49.476;11.010;2022-12-07T00:03:50;2.90;99.90
16999;DHT22;10211;49.476;11.010;2022-12-07T00:06:19;2.90;99.90
16999;DHT22;10211;49.476;11.010;2022-12-07T00:08:47;2.90;99.90
16999;DHT22;10211;49.476;11.010;2022-12-07T00:11:15;2.90;99.90
16999;DHT22;10211;49.476;11.010;2022-12-07T00:13:43;2.80;99.90
16999;DHT22;10211;49.476;11.010;2022-12-07T00:16:12;2.80;99.90
16999;DHT22;10211;49.476;11.010;2022-12-07T00:18:39;2.80;99.90
16999;DHT22;10211;49.476;11.010;2022-12-07T00:21:10;2.80;99.90
16999;DHT22;10211;49.476;11.010;2022-12-07T00:23:38;2.80;99.90
16999;DHT22;10211;49.476;11.010;2022-12-07T00:26:07;2.80;99.90
16999;DHT22;10211;49.476;11.010;2022-12-07T00:28:34;2.80;99.90
16999;DHT22;10211;49.476;11.010;2022-12-07T00:31:02;2.80;99.90
16999;DHT22;10211;49.476;11.010;2022-12-07T00:33:29;2.80;99.90
16999;DHT22;10211;49.476;11.010;2022-12-07T00:35:56;2.80;99.90
16999;DHT22;10211;49.476;11.010;2022-12-07T00:38:24;2.80;99.90
16999;DHT22;10211;49.476;11.010;2022-12-07T00:40:58;2.80;99.90
16999;DHT22;10211;49.476;11.010;2022-12-07T00:43:25;2.80;99.90
16999;DHT22;10211;49.476;11.010;2022-12-07T00:45:52;2.80;99.90
16999;DHT22;10211;49.476;11.010;2022-12-07T00:48:19;2.80;99.90
16999;DHT22;10211;49.476;11.010;2022-12-07T00:50:46;2.80;99.90
16999;DHT22;10211;49.476;11.010;2022-12-07T00:53:13;2.80;99.90
16999;DHT22;10211;49.476;11.010;2022-12-07T00:55:40;2.80;99.90
16999;DHT22;10211;49.476;11.010;2022-12-07T00:58:09;2.80;99.90
16999;DHT22;10211;49.476;11.010;2022-12-07T01:00:38;2.80;99.90
16999;DHT22;10211;49.476;11.010;2022-12-07T01:03:06;2.80;99.90
16999;DHT22;10211;49.476;11.010;2022-12-07T01:05:34;2.80;99.90
16999;DHT22;10211;49.476;11.010;2022-12-07T01:08:03;2.70;99.90
16999;DHT22;10211;49.476;11.010;2022-12-07T01:10:30;2.80;99.90
16999;DHT22;10211;49.476;11.010;2022-12-07T01:12:58;2.70;99.90
16999;DHT22;10211;49.476;11.010;2022-12-07T01:15:27;2.80;99.90
16999;DHT22;10211;49.476;11.010;2022-12-07T01:17:53;2.70;99.90
16999;DHT22;10211;49.476;11.010;2022-12-07T01:20:22;2.70;99.90
16999;DHT22;10211;49.476;11.010;2022-12-07T01:22:49;2.70;99.90
16999;DHT22;10211;49.476;11.010;2022-12-07T01:25:19;2.70;99.90
16999;DHT22;10211;49.476;11.010;2022-12-07T01:27:51;3.00;99.90
16999;DHT22;10211;49.476;11.010;2022-12-07T01:30:22;2.70;99.90
16999;DHT22;10211;49.476;11.010;2022-12-07T01:32:50;2.70;99.90
16999;DHT22;10211;49.476;11.010;2022-12-07T01:35:17;2.70;99.90
16999;DHT22;10211;49.476;11.010;2022-12-07T01:37:44;2.80;99.90
16999;DHT22;10211;49.476;11.010;2022-12-07T01:40:12;2.70;99.90
16999;DHT22;10211;49.476;11.010;2022-12-07T01:42:44;2.70;99.90
16999;DHT22;10211;49.476;11.010;2022-12-07T01:45:38;2.70;99.90
16999;DHT22;10211;49.476;11.010;2022-12-07T01:48:09;2.70;99.90
16999;DHT22;10211;49.476;11.010;2022-12-07T01:50:38;2.70;99.90
16999;DHT22;10211;49.476;11.010;2022-12-07T01:53:09;2.70;99.90
16999;DHT22;10211;49.476;11.010;2022-12-07T01:55:40;2.70;99.90
16999;DHT22;10211;49.476;11.010;2022-12-07T01:58:08;2.70;99.90
16999;DHT22;10211;49.476;11.010;2022-12-07T02:00:36;2.70;99.90
16999;DHT22;10211;49.476;11.010;2022-12-07T02:03:08;2.70;99.90
16999;DHT22;10211;49.476;11.010;2022-12-07T02:05:40;2.70;99.90
16999;DHT22;10211;49.476;11.010;2022-12-07T02:08:07;2.70;99.90
16999;DHT22;10211;49.476;11.010;2022-12-07T02:10:34;2.70;99.90
16999;DHT22;10211;49.476;11.010;2022-12-07T02:13:05;2.70;99.90
16999;DHT22;10211;49.476;11.010;2022-12-07T02:15:41;2.70;99.90
16999;DHT22;10211;49.476;11.010;2022-12-07T02:18:17;2.70;99.90
16999;DHT22;10211;49.476;11.010;2022-12-07T02:20:54;2.70;99.90
16999;DHT22;10211;49.476;11.010;2022-12-07T02:23:35;2.70;99.90
16999;DHT22;10211;49.476;11.010;2022-12-07T02:29:17;2.60;99.90
16999;DHT22;10211;49.476;11.010;2022-12-07T02:31:53;2.60;99.90
16999;DHT22;10211;49.476;11.010;2022-12-07T02:34:29;2.60;99.90
16999;DHT22;10211;49.476;11.010;2022-12-07T02:37:00;2.60;99.90
16999;DHT22;10211;49.476;11.010;2022-12-07T02:39:33;2.60;99.90
16999;DHT22;10211;49.476;11.010;2022-12-07T02:42:08;2.60;99.90
16999;DHT22;10211;49.476;11.010;2022-12-07T02:44:41;2.60;99.90
16999;DHT22;10211;49.476;11.010;2022-12-07T02:47:10;2.60;99.90
16999;DHT22;10211;49.476;11.010;2022-12-07T02:49:39;2.60;99.90
16999;DHT22;10211;49.476;11.010;2022-12-07T02:52:07;2.60;99.90
16999;DHT22;10211;49.476;11.010;2022-12-07T02:54:33;2.60;99.90
16999;DHT22;10211;49.476;11.010;2022-12-07T02:57:07;2.80;99.90
16999;DHT22;10211;49.476;11.010;2022-12-07T02:59:46;2.50;99.90
16999;DHT22;10211;49.476;11.010;2022-12-07T03:02:20;2.50;99.90
16999;DHT22;10211;49.476;11.010;2022-12-07T03:04:59;2.30;99.90
16999;DHT22;10211;49.476;11.010;2022-12-07T03:07:33;2.20;99.90
16999;DHT22;10211;49.476;11.010;2022-12-07T03:10:09;2.00;99.90
16999;DHT22;10211;49.476;11.010;2022-12-07T03:12:46;1.90;99.90
16999;DHT22;10211;49.476;11.010;2022-12-07T03:15:23;1.80;99.90
16999;DHT22;10211;49.476;11.010;2022-12-07T03:17:56;1.80;99.90
16999;DHT22;10211;49.476;11.010;2022-12-07T03:20:26;1.70;99.90
16999;DHT22;10211;49.476;11.010;2022-12-07T03:22:59;1.70;99.90
16999;DHT22;10211;49.476;11.010;2022-12-07T03:25:27;1.70;99.90
16999;DHT22;10211;49.476;11.010;2022-12-07T03:27:57;1.80;99.90
16999;DHT22;10211;49.476;11.010;2022-12-07T03:30:28;1.80;99.90
16999;DHT22;10211;49.476;11.010;2022-12-07T03:33:01;1.80;99.90
16999;DHT22;10211;49.476;11.010;2022-12-07T03:35:33;1.90;99.90
16999;DHT22;10211;49.476;11.010;2022-12-07T03:38:08;1.80;99.90
16999;DHT22;10211;49.476;11.010;2022-12-07T03:40:43;1.80;99.90
16999;DHT22;10211;49.476;11.010;2022-12-07T03:43:11;1.80;99.90
16999;DHT22;10211;49.476;11.010;2022-12-07T03:45:41;1.80;99.90
16999;DHT22;10211;49.476;11.010;2022-12-07T03:48:16;1.80;99.90
16999;DHT22;10211;49.476;11.010;2022-12-07T03:50:52;1.80;99.90
16999;DHT22;10211;49.476;11.010;2022-12-07T03:53:23;1.70;99.90
16999;DHT22;10211;49.476;11.010;2022-12-07T03:55:52;1.60;99.90
16999;DHT22;10211;49.476;11.010;2022-12-07T03:58:22;1.50;99.90
16999;DHT22;10211;49.476;11.010;2022-12-07T04:00:53;1.40;99.90
16999;DHT22;10211;49.476;11.010;2022-12-07T04:03:21;1.30;99.90
16999;DHT22;10211;49.476;11.010;2022-12-07T04:05:48;1.10;99.90
16999;DHT22;10211;49.476;11.010;2022-12-07T04:08:17;1.00;99.90
16999;DHT22;10211;49.476;11.010;2022-12-07T04:10:43;1.00;99.90
16999;DHT22;10211;49.476;11.010;2022-12-07T04:13:10;0.90;99.90
16999;DHT22;10211;49.476;11.010;2022-12-07T04:15:38;0.80;99.90
16999;DHT22;10211;49.476;11.010;2022-12-07T04:18:07;0.80;99.90
16999;DHT22;10211;49.476;11.010;2022-12-07T04:20:34;0.80;99.90
16999;DHT22;10211;49.476;11.010;2022-12-07T04:23:00;0.80;99.90
16999;DHT22;10211;49.476;11.010;2022-12-07T04:25:27;0.90;99.90
16999;DHT22;10211;49.476;11.010;2022-12-07T04:27:54;0.80;99.90
16999;DHT22;10211;49.476;11.010;2022-12-07T04:30:21;0.90;99.90
16999;DHT22;10211;49.476;11.010;2022-12-07T04:32:48;0.90;99.90
16999;DHT22;10211;49.476;11.010;2022-12-07T04:35:16;1.00;99.90
16999;DHT22;10211;49.476;11.010;2022-12-07T04:37:43;1.10;99.90
16999;DHT22;10211;49.476;11.010;2022-12-07T04:40:11;1.10;99.90
16999;DHT22;10211;49.476;11.010;2022-12-07T04:42:40;1.10;99.90
16999;DHT22;10211;49.476;11.010;2022-12-07T04:45:08;1.20;99.90
16999;DHT22;10211;49.476;11.010;2022-12-07T04:47:34;1.20;99.90
16999;DHT22;10211;49.476;11.010;2022-12-07T04:50:02;1.30;99.90
16999;DHT22;10211;49.476;11.010;2022-12-07T04:52:31;1.30;99.90
16999;DHT22;10211;49.476;11.010;2022-12-07T04:54:59;1.30;99.90
16999;DHT22;10211;49.476;11.010;2022-12-07T04:57:26;1.40;99.90
16999;DHT22;10211;49.476;11.010;2022-12-07T04:59:53;1.40;99.90
16999;DHT22;10211;49.476;11.010;2022-12-07T05:02:20;1.40;99.90
16999;DHT22;10211;49.476;11.010;2022-12-07T05:04:46;1.50;99.90
16999;DHT22;10211;49.476;11.010;2022-12-07T05:07:13;1.50;99.90
16999;DHT22;10211;49.476;11.010;2022-12-07T05:09:42;1.50;99.90
16999;DHT22;10211;49.476;11.010;2022-12-07T05:12:09;1.60;99.90
16999;DHT22;10211;49.476;11.010;2022-12-07T05:14:36;1.60;99.90
16999;DHT22;10211;49.476;11.010;2022-12-07T05:17:03;1.70;99.90
16999;DHT22;10211;49.476;11.010;2022-12-07T05:19:30;1.70;99.90
16999;DHT22;10211;49.476;11.010;2022-12-07T05:21:57;1.70;99.90
16999;DHT22;10211;49.476;11.010;2022-12-07T05:24:23;1.70;99.90
16999;DHT22;10211;49.476;11.010;2022-12-07T05:26:52;1.70;99.90
16999;DHT22;10211;49.476;11.010;2022-12-07T05:29:18;1.80;99.90
16999;DHT22;10211;49.476;11.010;2022-12-07T05:31:45;1.80;99.90
16999;DHT22;10211;49.476;11.010;2022-12-07T05:34:12;1.80;99.90
16999;DHT22;10211;49.476;11.010;2022-12-07T05:36:39;1.80;99.90
16999;DHT22;10211;49.476;11.010;2022-12-07T05:39:06;1.80;99.90
16999;DHT22;10211;49.476;11.010;2022-12-07T05:41:33;1.80;99.90
16999;DHT22;10211;49.476;11.010;2022-12-07T05:44:19;1.80;99.90
16999;DHT22;10211;49.476;11.010;2022-12-07T05:46:46;1.80;99.90
16999;DHT22;10211;49.476;11.010;2022-12-07T05:49:13;1.80;99.90
16999;DHT22;10211;49.476;11.010;2022-12-07T05:51:41;1.80;99.90
16999;DHT22;10211;49.476;11.010;2022-12-07T05:54:09;1.60;99.90
16999;DHT22;10211;49.476;11.010;2022-12-07T05:56:36;1.80;99.90
16999;DHT22;10211;49.476;11.010;2022-12-07T05:59:04;1.80;99.90
16999;DHT22;10211;49.476;11.010;2022-12-07T06:01:49;1.80;99.90
16999;DHT22;10211;49.476;11.010;2022-12-07T06:04:16;1.80;99.90
16999;DHT22;10211;49.476;11.010;2022-12-07T06:06:45;1.80;99.90
16999;DHT22;10211;49.476;11.010;2022-12-07T06:09:14;1.80;99.90
16999;DHT22;10211;49.476;11.010;2022-12-07T06:11:43;1.80;99.90
16999;DHT22;10211;49.476;11.010;2022-12-07T06:14:28;1.80;99.90
16999;DHT22;10211;49.476;11.010;2022-12-07T06:16:56;1.80;99.90
16999;DHT22;10211;49.476;11.010;2022-12-07T06:19:23;1.90;99.90
16999;DHT22;10211;49.476;11.010;2022-12-07T06:21:50;1.90;99.90
16999;DHT22;10211;49.476;11.010;2022-12-07T06:24:17;1.90;99.90
16999;DHT22;10211;49.476;11.010;2022-12-07T06:26:44;1.90;99.90
16999;DHT22;10211;49.476;11.010;2022-12-07T06:29:13;1.90;99.90
16999;DHT22;10211;49.476;11.010;2022-12-07T06:31:40;1.90;99.90
16999;DHT22;10211;49.476;11.010;2022-12-07T06:34:10;1.90;99.90
16999;DHT22;10211;49.476;11.010;2022-12-07T06:36:38;1.90;99.90
16999;DHT22;10211;49.476;11.010;2022-12-07T06:39:06;1.90;99.90
16999;DHT22;10211;49.476;11.010;2022-12-07T06:41:34;1.90;99.90
16999;DHT22;10211;49.476;11.010;2022-12-07T06:44:01;1.90;99.90
16999;DHT22;10211;49.476;11.010;2022-12-07T06:46:28;1.90;99.90
16999;DHT22;10211;49.476;11.010;2022-12-07T06:48:54;1.90;99.90
16999;DHT22;10211;49.476;11.010;2022-12-07T06:51:25;2.00;99.90
16999;DHT22;10211;49.476;11.010;2022-12-07T06:53:52;2.00;99.90
16999;DHT22;10211;49.476;11.010;2022-12-07T06:56:19;2.00;99.90
16999;DHT22;10211;49.476;11.010;2022-12-07T06:58:46;2.00;99.90
16999;DHT22;10211;49.476;11.010;2022-12-07T07:01:14;2.00;99.90
16999;DHT22;10211;49.476;11.010;2022-12-07T07:03:41;2.00;99.90
16999;DHT22;10211;49.476;11.010;2022-12-07T07:06:09;2.10;99.90
16999;DHT22;10211;49.476;11.010;2022-12-07T07:08:38;2.10;99.90
16999;DHT22;10211;49.476;11.010;2022-12-07T07:11:07;2.10;99.90
16999;DHT22;10211;49.476;11.010;2022-12-07T07:13:35;2.10;99.90
16999;DHT22;10211;49.476;11.010;2022-12-07T07:16:02;2.10;99.90
16999;DHT22;10211;49.476;11.010;2022-12-07T07:18:29;2.20;99.90
16999;DHT22;10211;49.476;11.010;2022-12-07T07:20:56;2.20;99.90
16999;DHT22;10211;49.476;11.010;2022-12-07T07:23:23;2.20;99.90
16999;DHT22;10211;49.476;11.010;2022-12-07T07:25:52;2.20;99.90
16999;DHT22;10211;49.476;11.010;2022-12-07T07:28:19;2.30;99.90
16999;DHT22;10211;49.476;11.010;2022-12-07T07:30:47;2.30;99.90
16999;DHT22;10211;49.476;11.010;2022-12-07T07:33:14;2.30;99.90
16999;DHT22;10211;49.476;11.010;2022-12-07T07:35:40;2.40;99.90
16999;DHT22;10211;49.476;11.010;2022-12-07T07:38:07;2.40;99.90
16999;DHT22;10211;49.476;11.010;2022-12-07T07:40:35;2.40;99.90
16999;DHT22;10211;49.476;11.010;2022-12-07T07:43:03;2.50;99.90
16999;DHT22;10211;49.476;11.010;2022-12-07T07:45:30;2.60;99.90
16999;DHT22;10211;49.476;11.010;2022-12-07T07:47:57;2.60;99.90
16999;DHT22;10211;49.476;11.010;2022-12-07T07:50:24;2.60;99.90
16999;DHT22;10211;49.476;11.010;2022-12-07T07:52:51;2.60;99.90
16999;DHT22;10211;49.476;11.010;2022-12-07T07:55:19;2.70;99.90
16999;DHT22;10211;49.476;11.010;2022-12-07T07:57:46;2.70;99.90
16999;DHT22;10211;49.476;11.010;2022-12-07T08:00:16;2.80;99.90
16999;DHT22;10211;49.476;11.010;2022-12-07T08:02:43;2.80;99.90
16999;DHT22;10211;49.476;11.010;2022-12-07T08:05:12;2.90;99.90
16999;DHT22;10211;49.476;11.010;2022-12-07T08:07:39;2.90;99.90
16999;DHT22;10211;49.476;11.010;2022-12-07T08:10:07;3.00;99.90
16999;DHT22;10211;49.476;11.010;2022-12-07T08:12:36;3.00;99.90
16999;DHT22;10211;49.476;11.010;2022-12-07T08:15:27;3.00;99.90
16999;DHT22;10211;49.476;11.010;2022-12-07T08:17:54;3.10;99.90
16999;DHT22;10211;49.476;11.010;2022-12-07T08:20:21;3.10;99.90
16999;DHT22;10211;49.476;11.010;2022-12-07T08:22:47;3.10;99.90
16999;DHT22;10211;49.476;11.010;2022-12-07T08:25:14;3.10;99.90
16999;DHT22;10211;49.476;11.010;2022-12-07T08:27:41;3.10;99.90
16999;DHT22;10211;49.476;11.010;2022-12-07T08:30:08;3.20;99.90
16999;DHT22;10211;49.476;11.010;2022-12-07T08:32:36;3.20;99.90
16999;DHT22;10211;49.476;11.010;2022-12-07T08:35:04;3.20;99.90
16999;DHT22;10211;49.476;11.010;2022-12-07T08:37:31;3.30;99.90
16999;DHT22;10211;49.476;11.010;2022-12-07T08:39:58;3.30;99.90
16999;DHT22;10211;49.476;11.010;2022-12-07T08:42:25;3.30;99.90
16999;DHT22;10211;49.476;11.010;2022-12-07T08:44:55;3.30;99.90
16999;DHT22;10211;49.476;11.010;2022-12-07T08:47:23;3.40;99.90
16999;DHT22;10211;49.476;11.010;2022-12-07T08:49:52;3.50;99.90
16999;DHT22;10211;49.476;11.010;2022-12-07T08:52:20;3.50;99.90
16999;DHT22;10211;49.476;11.010;2022-12-07T08:54:47;3.60;99.90
16999;DHT22;10211;49.476;11.010;2022-12-07T08:57:14;3.70;99.90
16999;DHT22;10211;49.476;11.010;2022-12-07T08:59:41;3.70;99.90
16999;DHT22;10211;49.476;11.010;2022-12-07T09:02:08;3.70;99.90
16999;DHT22;10211;49.476;11.010;2022-12-07T09:04:35;3.80;99.90
16999;DHT22;10211;49.476;11.010;2022-12-07T09:07:04;3.80;99.90
16999;DHT22;10211;49.476;11.010;2022-12-07T09:09:31;3.80;99.90
16999;DHT22;10211;49.476;11.010;2022-12-07T09:11:58;3.80;99.90
16999;DHT22;10211;49.476;11.010;2022-12-07T09:14:25;3.70;99.90
16999;DHT22;10211;49.476;11.010;2022-12-07T09:16:52;3.70;99.90
16999;DHT22;10211;49.476;11.010;2022-12-07T09:19:18;3.60;99.90
16999;DHT22;10211;49.476;11.010;2022-12-07T09:21:46;3.60;99.90
16999;DHT22;10211;49.476;11.010;2022-12-07T09:24:14;3.60;99.90
16999;DHT22;10211;49.476;11.010;2022-12-07T09:26:41;3.60;99.90
16999;DHT22;10211;49.476;11.010;2022-12-07T09:29:08;3.60;99.90
16999;DHT22;10211;49.476;11.010;2022-12-07T09:31:36;3.60;99.90
16999;DHT22;10211;49.476;11.010;2022-12-07T09:34:03;3.60;99.90
16999;DHT22;10211;49.476;11.010;2022-12-07T09:36:31;3.70;99.90
16999;DHT22;10211;49.476;11.010;2022-12-07T09:38:58;3.70;99.90
16999;DHT22;10211;49.476;11.010;2022-12-07T09:41:27;3.90;99.90
16999;DHT22;10211;49.476;11.010;2022-12-07T09:44:03;3.80;99.90
16999;DHT22;10211;49.476;11.010;2022-12-07T09:46:34;3.80;99.90
16999;DHT22;10211;49.476;11.010;2022-12-07T09:49:03;3.70;99.90
16999;DHT22;10211;49.476;11.010;2022-12-07T09:51:31;3.70;99.90
16999;DHT22;10211;49.476;11.010;2022-12-07T09:53:58;3.70;99.90
16999;DHT22;10211;49.476;11.010;2022-12-07T09:56:29;3.70;99.90
16999;DHT22;10211;49.476;11.010;2022-12-07T09:58:59;3.60;99.90
16999;DHT22;10211;49.476;11.010;2022-12-07T10:01:29;3.70;99.90
16999;DHT22;10211;49.476;11.010;2022-12-07T10:04:05;3.60;99.90
16999;DHT22;10211;49.476;11.010;2022-12-07T10:06:33;3.60;99.90
16999;DHT22;10211;49.476;11.010;2022-12-07T10:09:00;3.60;99.90
16999;DHT22;10211;49.476;11.010;2022-12-07T10:11:29;3.60;99.90
16999;DHT22;10211;49.476;11.010;2022-12-07T10:14:10;3.70;99.90
16999;DHT22;10211;49.476;11.010;2022-12-07T10:16:40;3.70;99.90
16999;DHT22;10211;49.476;11.010;2022-12-07T10:19:22;3.70;99.90
16999;DHT22;10211;49.476;11.010;2022-12-07T10:22:05;3.80;99.90
16999;DHT22;10211;49.476;11.010;2022-12-07T10:24:35;3.90;99.90
16999;DHT22;10211;49.476;11.010;2022-12-07T10:27:18;3.90;99.90
16999;DHT22;10211;49.476;11.010;2022-12-07T10:29:48;3.90;99.90
16999;DHT22;10211;49.476;11.010;2022-12-07T10:32:30;3.90;99.90
16999;DHT22;10211;49.476;11.010;2022-12-07T10:35:20;3.90;99.90
16999;DHT22;10211;49.476;11.010;2022-12-07T10:37:48;4.00;99.90
16999;DHT22;10211;49.476;11.010;2022-12-07T10:40:30;4.10;99.90
16999;DHT22;10211;49.476;11.010;2022-12-07T10:43:17;4.20;99.90
16999;DHT22;10211;49.476;11.010;2022-12-07T10:46:03;4.20;99.90
16999;DHT22;10211;49.476;11.010;2022-12-07T10:48:37;4.20;99.90
16999;DHT22;10211;49.476;11.010;2022-12-07T10:51:08;4.20;99.90
16999;DHT22;10211;49.476;11.010;2022-12-07T10:53:48;4.20;99.90
16999;DHT22;10211;49.476;11.010;2022-12-07T10:56:30;4.20;99.90
16999;DHT22;10211;49.476;11.010;2022-12-07T10:59:22;4.20;99.90
16999;DHT22;10211;49.476;11.010;2022-12-07T11:02:01;4.10;99.90
16999;DHT22;10211;49.476;11.010;2022-12-07T11:04:37;4.10;99.90
16999;DHT22;10211;49.476;11.010;2022-12-07T11:07:11;4.10;99.90
16999;DHT22;10211;49.476;11.010;2022-12-07T11:09:52;4.10;99.90
16999;DHT22;10211;49.476;11.010;2022-12-07T11:12:30;4.10;99.90
16999;DHT22;10211;49.476;11.010;2022-12-07T11:15:07;4.10;99.90
16999;DHT22;10211;49.476;11.010;2022-12-07T11:17:44;4.10;99.90
16999;DHT22;10211;49.476;11.010;2022-12-07T11:20:21;4.20;99.90
16999;DHT22;10211;49.476;11.010;2022-12-07T11:23:00;4.20;99.90
16999;DHT22;10211;49.476;11.010;2022-12-07T11:25:32;4.20;99.90
16999;DHT22;10211;49.476;11.010;2022-12-07T11:28:10;4.20;99.90
16999;DHT22;10211;49.476;11.010;2022-12-07T11:30:48;4.30;99.90
16999;DHT22;10211;49.476;11.010;2022-12-07T11:33:24;4.20;99.90
16999;DHT22;10211;49.476;11.010;2022-12-07T11:36:01;4.20;99.90
16999;DHT22;10211;49.476;11.010;2022-12-07T11:38:36;4.30;99.90
16999;DHT22;10211;49.476;11.010;2022-12-07T11:41:06;4.20;99.90
16999;DHT22;10211;49.476;11.010;2022-12-07T11:43:54;4.20;99.90
16999;DHT22;10211;49.476;11.010;2022-12-07T11:46:25;4.20;99.90
16999;DHT22;10211;49.476;11.010;2022-12-07T11:49:01;4.20;99.90
16999;DHT22;10211;49.476;11.010;2022-12-07T11:51:30;4.20;99.90
16999;DHT22;10211;49.476;11.010;2022-12-07T11:54:02;4.20;99.90
16999;DHT22;10211;49.476;11.010;2022-12-07T11:56:30;4.20;99.90
16999;DHT22;10211;49.476;11.010;2022-12-07T11:59:07;4.20;99.90
16999;DHT22;10211;49.476;11.010;2022-12-07T12:01:47;4.10;99.90
16999;DHT22;10211;49.476;11.010;2022-12-07T12:04:26;4.10;99.90
16999;DHT22;10211;49.476;11.010;2022-12-07T12:06:55;4.20;99.90
16999;DHT22;10211;49.476;11.010;2022-12-07T12:09:25;4.20;99.90
16999;DHT22;10211;49.476;11.010;2022-12-07T12:12:17;4.10;99.90
16999;DHT22;10211;49.476;11.010;2022-12-07T12:14:57;4.10;99.90
16999;DHT22;10211;49.476;11.010;2022-12-07T12:17:42;4.10;99.90
16999;DHT22;10211;49.476;11.010;2022-12-07T12:20:19;4.10;99.90
16999;DHT22;10211;49.476;11.010;2022-12-07T12:22:51;4.10;99.90
16999;DHT22;10211;49.476;11.010;2022-12-07T12:25:22;4.10;99.90
16999;DHT22;10211;49.476;11.010;2022-12-07T12:27:51;4.10;99.90
16999;DHT22;10211;49.476;11.010;2022-12-07T12:30:33;4.10;99.90
16999;DHT22;10211;49.476;11.010;2022-12-07T12:33:22;4.10;99.90
16999;DHT22;10211;49.476;11.010;2022-12-07T12:39:12;4.10;99.90
16999;DHT22;10211;49.476;11.010;2022-12-07T12:41:59;4.10;99.90
16999;DHT22;10211;49.476;11.010;2022-12-07T12:44:40;4.10;99.90
16999;DHT22;10211;49.476;11.010;2022-12-07T12:47:42;4.10;99.90
16999;DHT22;10211;49.476;11.010;2022-12-07T12:50:19;4.10;99.90
16999;DHT22;10211;49.476;11.010;2022-12-07T12:52:52;4.10;99.90
16999;DHT22;10211;49.476;11.010;2022-12-07T12:56:00;4.10;99.90
16999;DHT22;10211;49.476;11.010;2022-12-07T12:58:35;4.10;99.90
16999;DHT22;10211;49.476;11.010;2022-12-07T13:07:12;4.10;99.90
16999;DHT22;10211;49.476;11.010;2022-12-07T13:09:43;4.10;99.90
16999;DHT22;10211;49.476;11.010;2022-12-07T13:12:14;4.00;99.90
16999;DHT22;10211;49.476;11.010;2022-12-07T13:14:57;4.00;99.90
16999;DHT22;10211;49.476;11.010;2022-12-07T13:20:45;3.90;99.90
16999;DHT22;10211;49.476;11.010;2022-12-07T13:23:16;3.90;99.90
16999;DHT22;10211;49.476;11.010;2022-12-07T13:25:51;3.90;99.90
16999;DHT22;10211;49.476;11.010;2022-12-07T13:28:18;3.90;99.90
16999;DHT22;10211;49.476;11.010;2022-12-07T13:30:54;4.00;99.90
16999;DHT22;10211;49.476;11.010;2022-12-07T13:33:27;4.00;99.90
16999;DHT22;10211;49.476;11.010;2022-12-07T13:35:56;3.90;99.90
16999;DHT22;10211;49.476;11.010;2022-12-07T13:38:29;3.90;99.90
16999;DHT22;10211;49.476;11.010;2022-12-07T13:41:03;3.90;99.90
16999;DHT22;10211;49.476;11.010;2022-12-07T13:43:31;3.90;99.90
16999;DHT22;10211;49.476;11.010;2022-12-07T13:45:58;3.90;99.90
16999;DHT22;10211;49.476;11.010;2022-12-07T13:48:31;3.90;99.90
16999;DHT22;10211;49.476;11.010;2022-12-07T13:51:01;3.90;99.90
16999;DHT22;10211;49.476;11.010;2022-12-07T13:53:30;3.90;99.90
16999;DHT22;10211;49.476;11.010;2022-12-07T13:55:58;3.90;99.90
16999;DHT22;10211;49.476;11.010;2022-12-07T13:58:25;3.90;99.90
16999;DHT22;10211;49.476;11.010;2022-12-07T14:00:52;3.90;99.90
16999;DHT22;10211;49.476;11.010;2022-12-07T14:03:27;3.90;99.90
16999;DHT22;10211;49.476;11.010;2022-12-07T14:06:15;3.90;99.90
16999;DHT22;10211;49.476;11.010;2022-12-07T14:08:44;3.90;99.90
16999;DHT22;10211;49.476;11.010;2022-12-07T14:11:14;3.90;99.90
16999;DHT22;10211;49.476;11.010;2022-12-07T14:13:50;4.00;99.90
16999;DHT22;10211;49.476;11.010;2022-12-07T14:16:24;4.00;99.90
16999;DHT22;10211;49.476;11.010;2022-12-07T14:18:54;4.00;99.90
16999;DHT22;10211;49.476;11.010;2022-12-07T14:21:22;4.00;99.90
16999;DHT22;10211;49.476;11.010;2022-12-07T14:24:19;4.00;99.90
16999;DHT22;10211;49.476;11.010;2022-12-07T14:26:47;4.00;99.90
16999;DHT22;10211;49.476;11.010;2022-12-07T14:29:32;3.90;99.90
16999;DHT22;10211;49.476;11.010;2022-12-07T14:32:22;3.90;99.90
16999;DHT22;10211;49.476;11.010;2022-12-07T14:34:58;3.90;99.90
16999;DHT22;10211;49.476;11.010;2022-12-07T14:37:25;3.80;99.90
16999;DHT22;10211;49.476;11.010;2022-12-07T14:39:54;3.70;99.90
16999;DHT22;10211;49.476;11.010;2022-12-07T14:42:24;3.60;99.90
16999;DHT22;10211;49.476;11.010;2022-12-07T14:44:52;3.50;99.90
16999;DHT22;10211;49.476;11.010;2022-12-07T14:47:19;3.40;99.90
16999;DHT22;10211;49.476;11.010;2022-12-07T14:49:46;3.30;99.90
16999;DHT22;10211;49.476;11.010;2022-12-07T14:52:15;3.20;99.90
16999;DHT22;10211;49.476;11.010;2022-12-07T14:54:43;3.20;99.90
16999;DHT22;10211;49.476;11.010;2022-12-07T14:57:11;3.10;99.90
16999;DHT22;10211;49.476;11.010;2022-12-07T14:59:38;3.10;99.90
16999;DHT22;10211;49.476;11.010;2022-12-07T15:02:08;3.00;99.90
16999;DHT22;10211;49.476;11.010;2022-12-07T15:04:35;3.00;99.90
16999;DHT22;10211;49.476;11.010;2022-12-07T15:07:05;3.00;99.90
16999;DHT22;10211;49.476;11.010;2022-12-07T15:09:32;3.00;99.90
16999;DHT22;10211;49.476;11.010;2022-12-07T15:11:59;2.90;99.90
16999;DHT22;10211;49.476;11.010;2022-12-07T15:14:28;2.90;99.90
16999;DHT22;10211;49.476;11.010;2022-12-07T15:16:55;2.90;99.90
16999;DHT22;10211;49.476;11.010;2022-12-07T15:19:23;2.90;99.90
16999;DHT22;10211;49.476;11.010;2022-12-07T15:21:52;3.00;99.90
16999;DHT22;10211;49.476;11.010;2022-12-07T15:24:19;3.00;99.90
16999;DHT22;10211;49.476;11.010;2022-12-07T15:26:47;3.00;99.90
16999;DHT22;10211;49.476;11.010;2022-12-07T15:29:14;3.10;99.90
16999;DHT22;10211;49.476;11.010;2022-12-07T15:31:43;3.10;99.90
16999;DHT22;10211;49.476;11.010;2022-12-07T15:34:11;3.10;99.90
16999;DHT22;10211;49.476;11.010;2022-12-07T15:36:38;3.20;99.90
16999;DHT22;10211;49.476;11.010;2022-12-07T15:39:04;3.20;99.90
16999;DHT22;10211;49.476;11.010;2022-12-07T15:41:31;3.20;99.90
16999;DHT22;10211;49.476;11.010;2022-12-07T15:43:58;3.30;99.90
16999;DHT22;10211;49.476;11.010;2022-12-07T15:46:43;3.30;99.90
16999;DHT22;10211;49.476;11.010;2022-12-07T15:49:13;3.30;99.90
16999;DHT22;10211;49.476;11.010;2022-12-07T15:51:41;3.30;99.90
16999;DHT22;10211;49.476;11.010;2022-12-07T15:54:12;3.40;99.90
16999;DHT22;10211;49.476;11.010;2022-12-07T15:56:39;3.40;99.90
16999;DHT22;10211;49.476;11.010;2022-12-07T15:59:06;3.40;99.90
16999;DHT22;10211;49.476;11.010;2022-12-07T16:01:33;3.40;99.90
16999;DHT22;10211;49.476;11.010;2022-12-07T16:04:01;3.40;99.90
16999;DHT22;10211;49.476;11.010;2022-12-07T16:06:28;3.40;99.90
16999;DHT22;10211;49.476;11.010;2022-12-07T16:08:54;3.40;99.90